sensor_id;sensor_type;location;lat;lon;timestamp;P1;durP1;ratioP1;P2;durP2;ratioP2
31732;SDS011;18312;51.486;7.144;2022-12-18T00:00:45;115.97;;;43.88;;
31732;SDS011;18312;51.486;7.144;2022-12-18T00:03:12;129.95;;;45.17;;
31732;SDS011;18312;51.486;7.144;2022-12-18T00:05:45;127.25;;;44.97;;
31732;SDS011;18312;51.486;7.144;2022-12-18T00:08:13;127.60;;;42.83;;
31732;SDS011;18312;51.486;7.144;2022-12-18T00:10:40;119.05;;;38.67;;
31732;SDS011;18312;51.486;7.144;2022-12-18T00:13:07;119.18;;;39.97;;
31732;SDS011;18312;51.486;7.144;2022-12-18T00:15:35;116.10;;;41.67;;
31732;SDS011;18312;51.486;7.144;2022-12-18T00:18:02;116.55;;;39.50;;
31732;SDS011;18312;51.486;7.144;2022-12-18T00:20:29;122.28;;;40.28;;
31732;SDS011;18312;51.486;7.144;2022-12-18T00:22:56;112.65;;;40.55;;
31732;SDS011;18312;51.486;7.144;2022-12-18T00:25:23;107.95;;;38.70;;
31732;SDS011;18312;51.486;7.144;2022-12-18T00:27:49;99.97;;;38.30;;
31732;SDS011;18312;51.486;7.144;2022-12-18T00:30:16;108.28;;;40.45;;
31732;SDS011;18312;51.486;7.144;2022-12-18T00:32:44;113.03;;;38.67;;
31732;SDS011;18312;51.486;7.144;2022-12-18T00:35:11;97.18;;;40.08;;
31732;SDS011;18312;51.486;7.144;2022-12-18T00:37:38;100.28;;;38.28;;
31732;SDS011;18312;51.486;7.144;2022-12-18T00:40:05;107.00;;;41.95;;
31732;SDS011;18312;51.486;7.144;2022-12-18T00:42:32;94.18;;;36.10;;
31732;SDS011;18312;51.486;7.144;2022-12-18T00:45:17;110.72;;;40.42;;
31732;SDS011;18312;51.486;7.144;2022-12-18T00:47:47;111.13;;;38.50;;
31732;SDS011;18312;51.486;7.144;2022-12-18T00:50:15;107.60;;;37.90;;
31732;SDS011;18312;51.486;7.144;2022-12-18T00:52:42;92.93;;;34.97;;
31732;SDS011;18312;51.486;7.144;2022-12-18T00:55:18;119.93;;;41.00;;
31732;SDS011;18312;51.486;7.144;2022-12-18T00:57:45;96.45;;;35.00;;
31732;SDS011;18312;51.486;7.144;2022-12-18T01:00:14;112.90;;;38.85;;
31732;SDS011;18312;51.486;7.144;2022-12-18T01:02:43;107.38;;;40.45;;
31732;SDS011;18312;51.486;7.144;2022-12-18T01:05:13;97.90;;;39.20;;
31732;SDS011;18312;51.486;7.144;2022-12-18T01:07:42;98.50;;;39.13;;
31732;SDS011;18312;51.486;7.144;2022-12-18T01:10:11;106.30;;;37.05;;
31732;SDS011;18312;51.486;7.144;2022-12-18T01:12:39;98.70;;;37.03;;
31732;SDS011;18312;51.486;7.144;2022-12-18T01:15:07;110.95;;;40.40;;
31732;SDS011;18312;51.486;7.144;2022-12-18T01:20:25;97.38;;;35.45;;
31732;SDS011;18312;51.486;7.144;2022-12-18T01:22:53;102.63;;;36.28;;
31732;SDS011;18312;51.486;7.144;2022-12-18T01:25:20;92.78;;;36.25;;
31732;SDS011;18312;51.486;7.144;2022-12-18T01:27:56;104.68;;;36.78;;
31732;SDS011;18312;51.486;7.144;2022-12-18T01:30:26;84.03;;;34.22;;
31732;SDS011;18312;51.486;7.144;2022-12-18T01:32:54;89.82;;;35.80;;
31732;SDS011;18312;51.486;7.144;2022-12-18T01:38:18;103.53;;;34.78;;
31732;SDS011;18312;51.486;7.144;2022-12-18T01:40:45;103.35;;;38.85;;
31732;SDS011;18312;51.486;7.144;2022-12-18T01:43:13;94.03;;;35.30;;
31732;SDS011;18312;51.486;7.144;2022-12-18T01:45:41;92.55;;;34.95;;
31732;SDS011;18312;51.486;7.144;2022-12-18T01:48:08;93.00;;;34.50;;
31732;SDS011;18312;51.486;7.144;2022-12-18T01:50:38;95.38;;;35.15;;
31732;SDS011;18312;51.486;7.144;2022-12-18T01:53:11;96.47;;;34.28;;
31732;SDS011;18312;51.486;7.144;2022-12-18T01:55:41;106.18;;;38.58;;
31732;SDS011;18312;51.486;7.144;2022-12-18T01:58:13;82.18;;;32.17;;
31732;SDS011;18312;51.486;7.144;2022-12-18T02:00:41;70.07;;;29.23;;
31732;SDS011;18312;51.486;7.144;2022-12-18T02:03:08;81.93;;;33.28;;
31732;SDS011;18312;51.486;7.144;2022-12-18T02:05:38;90.90;;;34.08;;
31732;SDS011;18312;51.486;7.144;2022-12-18T02:08:13;85.13;;;32.53;;
31732;SDS011;18312;51.486;7.144;2022-12-18T02:10:46;80.25;;;28.40;;
31732;SDS011;18312;51.486;7.144;2022-12-18T02:13:19;86.35;;;29.05;;
31732;SDS011;18312;51.486;7.144;2022-12-18T02:15:54;86.53;;;31.92;;
31732;SDS011;18312;51.486;7.144;2022-12-18T02:18:28;91.15;;;31.40;;
31732;SDS011;18312;51.486;7.144;2022-12-18T02:20:59;84.05;;;31.48;;
31732;SDS011;18312;51.486;7.144;2022-12-18T02:23:44;76.93;;;30.73;;
31732;SDS011;18312;51.486;7.144;2022-12-18T02:26:19;93.70;;;32.72;;
31732;SDS011;18312;51.486;7.144;2022-12-18T02:28:51;86.45;;;30.50;;
31732;SDS011;18312;51.486;7.144;2022-12-18T02:31:23;76.07;;;30.13;;
31732;SDS011;18312;51.486;7.144;2022-12-18T02:33:53;92.43;;;31.90;;
31732;SDS011;18312;51.486;7.144;2022-12-18T02:36:23;81.78;;;30.58;;
31732;SDS011;18312;51.486;7.144;2022-12-18T02:38:53;86.45;;;30.65;;
31732;SDS011;18312;51.486;7.144;2022-12-18T02:41:24;77.13;;;28.45;;
31732;SDS011;18312;51.486;7.144;2022-12-18T02:43:53;64.75;;;29.00;;
31732;SDS011;18312;51.486;7.144;2022-12-18T02:46:25;69.63;;;27.10;;
31732;SDS011;18312;51.486;7.144;2022-12-18T02:48:59;81.30;;;29.90;;
31732;SDS011;18312;51.486;7.144;2022-12-18T02:51:33;73.68;;;30.63;;
31732;SDS011;18312;51.486;7.144;2022-12-18T02:54:06;79.40;;;30.90;;
31732;SDS011;18312;51.486;7.144;2022-12-18T02:56:38;71.97;;;28.63;;
31732;SDS011;18312;51.486;7.144;2022-12-18T02:59:12;83.55;;;30.70;;
31732;SDS011;18312;51.486;7.144;2022-12-18T03:01:46;90.57;;;32.33;;
31732;SDS011;18312;51.486;7.144;2022-12-18T03:04:36;88.25;;;30.92;;
31732;SDS011;18312;51.486;7.144;2022-12-18T03:07:09;87.10;;;33.85;;
31732;SDS011;18312;51.486;7.144;2022-12-18T03:09:40;80.05;;;30.58;;
31732;SDS011;18312;51.486;7.144;2022-12-18T03:12:14;91.80;;;29.15;;
31732;SDS011;18312;51.486;7.144;2022-12-18T03:14:51;74.40;;;29.05;;
31732;SDS011;18312;51.486;7.144;2022-12-18T03:17:22;87.40;;;31.27;;
31732;SDS011;18312;51.486;7.144;2022-12-18T03:19:52;85.50;;;28.52;;
31732;SDS011;18312;51.486;7.144;2022-12-18T03:22:29;83.00;;;30.08;;
31732;SDS011;18312;51.486;7.144;2022-12-18T03:24:59;73.65;;;27.45;;
31732;SDS011;18312;51.486;7.144;2022-12-18T03:27:28;74.32;;;29.02;;
31732;SDS011;18312;51.486;7.144;2022-12-18T03:30:00;80.63;;;26.20;;
31732;SDS011;18312;51.486;7.144;2022-12-18T03:32:33;89.38;;;31.45;;
31732;SDS011;18312;51.486;7.144;2022-12-18T03:35:06;82.20;;;30.75;;
31732;SDS011;18312;51.486;7.144;2022-12-18T03:37:36;82.03;;;29.05;;
31732;SDS011;18312;51.486;7.144;2022-12-18T03:40:04;80.20;;;30.23;;
31732;SDS011;18312;51.486;7.144;2022-12-18T03:42:35;65.47;;;27.48;;
31732;SDS011;18312;51.486;7.144;2022-12-18T03:45:10;84.53;;;31.45;;
31732;SDS011;18312;51.486;7.144;2022-12-18T03:47:40;82.55;;;29.98;;
31732;SDS011;18312;51.486;7.144;2022-12-18T03:50:26;74.03;;;30.10;;
31732;SDS011;18312;51.486;7.144;2022-12-18T03:52:58;79.20;;;30.25;;
31732;SDS011;18312;51.486;7.144;2022-12-18T03:55:33;82.65;;;30.25;;
31732;SDS011;18312;51.486;7.144;2022-12-18T03:58:03;79.80;;;29.95;;
31732;SDS011;18312;51.486;7.144;2022-12-18T04:00:33;78.90;;;31.35;;
31732;SDS011;18312;51.486;7.144;2022-12-18T04:03:00;74.78;;;28.10;;
31732;SDS011;18312;51.486;7.144;2022-12-18T04:05:30;75.47;;;29.67;;
31732;SDS011;18312;51.486;7.144;2022-12-18T04:07:59;76.35;;;28.70;;
31732;SDS011;18312;51.486;7.144;2022-12-18T04:10:27;77.78;;;28.02;;
31732;SDS011;18312;51.486;7.144;2022-12-18T04:13:04;73.13;;;29.38;;
31732;SDS011;18312;51.486;7.144;2022-12-18T04:15:31;75.05;;;28.52;;
31732;SDS011;18312;51.486;7.144;2022-12-18T04:20:27;75.85;;;26.80;;
31732;SDS011;18312;51.486;7.144;2022-12-18T04:22:54;76.97;;;28.75;;
31732;SDS011;18312;51.486;7.144;2022-12-18T04:25:21;80.47;;;28.35;;
31732;SDS011;18312;51.486;7.144;2022-12-18T04:27:48;76.55;;;30.55;;
31732;SDS011;18312;51.486;7.144;2022-12-18T04:30:16;72.10;;;28.63;;
31732;SDS011;18312;51.486;7.144;2022-12-18T04:32:43;74.28;;;26.50;;
31732;SDS011;18312;51.486;7.144;2022-12-18T04:35:09;91.22;;;27.52;;
31732;SDS011;18312;51.486;7.144;2022-12-18T04:37:36;76.95;;;28.88;;
31732;SDS011;18312;51.486;7.144;2022-12-18T04:40:04;69.70;;;28.85;;
31732;SDS011;18312;51.486;7.144;2022-12-18T04:42:31;63.58;;;25.75;;
31732;SDS011;18312;51.486;7.144;2022-12-18T04:44:58;69.43;;;26.80;;
31732;SDS011;18312;51.486;7.144;2022-12-18T04:47:26;80.15;;;27.48;;
31732;SDS011;18312;51.486;7.144;2022-12-18T04:49:53;76.65;;;30.25;;
31732;SDS011;18312;51.486;7.144;2022-12-18T04:52:20;69.20;;;26.23;;
31732;SDS011;18312;51.486;7.144;2022-12-18T04:54:47;70.93;;;24.38;;
31732;SDS011;18312;51.486;7.144;2022-12-18T04:57:14;61.28;;;26.83;;
31732;SDS011;18312;51.486;7.144;2022-12-18T04:59:43;73.13;;;25.88;;
31732;SDS011;18312;51.486;7.144;2022-12-18T05:02:10;67.85;;;23.75;;
31732;SDS011;18312;51.486;7.144;2022-12-18T05:04:38;60.33;;;24.13;;
31732;SDS011;18312;51.486;7.144;2022-12-18T05:07:20;59.95;;;24.70;;
31732;SDS011;18312;51.486;7.144;2022-12-18T05:09:47;58.42;;;22.70;;
31732;SDS011;18312;51.486;7.144;2022-12-18T05:12:14;57.97;;;25.38;;
31732;SDS011;18312;51.486;7.144;2022-12-18T05:14:41;59.60;;;23.75;;
31732;SDS011;18312;51.486;7.144;2022-12-18T05:17:08;62.05;;;23.23;;
31732;SDS011;18312;51.486;7.144;2022-12-18T05:19:35;65.38;;;25.35;;
31732;SDS011;18312;51.486;7.144;2022-12-18T05:22:03;68.18;;;25.98;;
31732;SDS011;18312;51.486;7.144;2022-12-18T05:24:30;51.50;;;20.95;;
31732;SDS011;18312;51.486;7.144;2022-12-18T05:26:57;56.15;;;20.50;;
31732;SDS011;18312;51.486;7.144;2022-12-18T05:29:24;60.50;;;22.65;;
31732;SDS011;18312;51.486;7.144;2022-12-18T05:31:52;54.65;;;20.95;;
31732;SDS011;18312;51.486;7.144;2022-12-18T05:34:19;54.53;;;21.95;;
31732;SDS011;18312;51.486;7.144;2022-12-18T05:36:46;55.25;;;23.25;;
31732;SDS011;18312;51.486;7.144;2022-12-18T05:39:14;54.83;;;18.92;;
31732;SDS011;18312;51.486;7.144;2022-12-18T05:41:41;62.05;;;22.95;;
31732;SDS011;18312;51.486;7.144;2022-12-18T05:44:08;51.75;;;20.38;;
31732;SDS011;18312;51.486;7.144;2022-12-18T05:46:35;55.83;;;21.27;;
31732;SDS011;18312;51.486;7.144;2022-12-18T05:49:02;54.42;;;22.52;;
31732;SDS011;18312;51.486;7.144;2022-12-18T05:51:29;47.28;;;20.38;;
31732;SDS011;18312;51.486;7.144;2022-12-18T05:53:56;59.28;;;21.60;;
31732;SDS011;18312;51.486;7.144;2022-12-18T05:56:25;51.33;;;20.17;;
31732;SDS011;18312;51.486;7.144;2022-12-18T05:58:52;41.83;;;19.20;;
31732;SDS011;18312;51.486;7.144;2022-12-18T06:01:20;52.78;;;21.27;;
31732;SDS011;18312;51.486;7.144;2022-12-18T06:03:48;47.42;;;18.50;;
31732;SDS011;18312;51.486;7.144;2022-12-18T06:06:16;46.17;;;18.73;;
31732;SDS011;18312;51.486;7.144;2022-12-18T06:08:44;51.55;;;19.80;;
31732;SDS011;18312;51.486;7.144;2022-12-18T06:11:11;50.70;;;20.90;;
31732;SDS011;18312;51.486;7.144;2022-12-18T06:13:40;62.25;;;22.65;;
31732;SDS011;18312;51.486;7.144;2022-12-18T06:16:07;68.20;;;24.88;;
31732;SDS011;18312;51.486;7.144;2022-12-18T06:18:34;53.80;;;21.80;;
31732;SDS011;18312;51.486;7.144;2022-12-18T06:21:04;50.92;;;22.45;;
31732;SDS011;18312;51.486;7.144;2022-12-18T06:23:31;45.60;;;21.77;;
31732;SDS011;18312;51.486;7.144;2022-12-18T06:25:58;59.55;;;22.98;;
31732;SDS011;18312;51.486;7.144;2022-12-18T06:28:29;64.93;;;23.33;;
31732;SDS011;18312;51.486;7.144;2022-12-18T06:30:57;67.22;;;23.42;;
31732;SDS011;18312;51.486;7.144;2022-12-18T06:33:25;58.25;;;22.85;;
31732;SDS011;18312;51.486;7.144;2022-12-18T06:35:53;66.18;;;24.55;;
31732;SDS011;18312;51.486;7.144;2022-12-18T06:38:20;62.42;;;26.23;;
31732;SDS011;18312;51.486;7.144;2022-12-18T06:40:47;69.15;;;24.73;;
31732;SDS011;18312;51.486;7.144;2022-12-18T06:45:43;50.75;;;21.10;;
31732;SDS011;18312;51.486;7.144;2022-12-18T06:48:12;68.78;;;22.80;;
31732;SDS011;18312;51.486;7.144;2022-12-18T06:50:41;64.03;;;25.08;;
31732;SDS011;18312;51.486;7.144;2022-12-18T06:53:08;66.55;;;24.17;;
31732;SDS011;18312;51.486;7.144;2022-12-18T06:55:35;56.90;;;23.20;;
31732;SDS011;18312;51.486;7.144;2022-12-18T06:58:01;57.25;;;20.48;;
31732;SDS011;18312;51.486;7.144;2022-12-18T07:00:28;61.85;;;24.42;;
31732;SDS011;18312;51.486;7.144;2022-12-18T07:02:55;47.70;;;21.75;;
31732;SDS011;18312;51.486;7.144;2022-12-18T07:05:23;58.20;;;21.00;;
31732;SDS011;18312;51.486;7.144;2022-12-18T07:07:50;59.40;;;24.52;;
31732;SDS011;18312;51.486;7.144;2022-12-18T07:10:17;63.28;;;22.58;;
31732;SDS011;18312;51.486;7.144;2022-12-18T07:12:43;62.90;;;22.40;;
31732;SDS011;18312;51.486;7.144;2022-12-18T07:15:10;60.50;;;21.75;;
31732;SDS011;18312;51.486;7.144;2022-12-18T07:17:37;53.95;;;20.63;;
31732;SDS011;18312;51.486;7.144;2022-12-18T07:20:04;55.95;;;22.88;;
31732;SDS011;18312;51.486;7.144;2022-12-18T07:22:32;59.00;;;21.00;;
31732;SDS011;18312;51.486;7.144;2022-12-18T07:24:59;61.35;;;22.60;;
31732;SDS011;18312;51.486;7.144;2022-12-18T07:27:26;57.13;;;22.00;;
31732;SDS011;18312;51.486;7.144;2022-12-18T07:29:52;58.70;;;21.55;;
31732;SDS011;18312;51.486;7.144;2022-12-18T07:32:20;57.55;;;20.45;;
31732;SDS011;18312;51.486;7.144;2022-12-18T07:34:46;55.50;;;21.05;;
31732;SDS011;18312;51.486;7.144;2022-12-18T07:37:13;50.15;;;19.85;;
31732;SDS011;18312;51.486;7.144;2022-12-18T07:39:41;44.20;;;19.20;;
31732;SDS011;18312;51.486;7.144;2022-12-18T07:42:08;47.63;;;20.85;;
31732;SDS011;18312;51.486;7.144;2022-12-18T07:44:52;38.60;;;18.58;;
31732;SDS011;18312;51.486;7.144;2022-12-18T07:47:18;45.42;;;18.55;;
31732;SDS011;18312;51.486;7.144;2022-12-18T07:49:45;40.58;;;17.10;;
31732;SDS011;18312;51.486;7.144;2022-12-18T07:52:12;41.42;;;16.63;;
31732;SDS011;18312;51.486;7.144;2022-12-18T07:54:38;48.42;;;17.58;;
31732;SDS011;18312;51.486;7.144;2022-12-18T07:57:07;44.65;;;14.77;;
31732;SDS011;18312;51.486;7.144;2022-12-18T07:59:34;36.33;;;16.23;;
31732;SDS011;18312;51.486;7.144;2022-12-18T08:02:01;47.38;;;18.00;;
31732;SDS011;18312;51.486;7.144;2022-12-18T08:04:28;40.20;;;16.60;;
31732;SDS011;18312;51.486;7.144;2022-12-18T08:06:54;46.63;;;16.50;;
31732;SDS011;18312;51.486;7.144;2022-12-18T08:09:21;48.08;;;16.60;;
31732;SDS011;18312;51.486;7.144;2022-12-18T08:11:48;43.00;;;18.48;;
31732;SDS011;18312;51.486;7.144;2022-12-18T08:14:16;35.67;;;15.50;;
31732;SDS011;18312;51.486;7.144;2022-12-18T08:16:43;45.20;;;15.68;;
31732;SDS011;18312;51.486;7.144;2022-12-18T08:19:09;38.45;;;17.42;;
31732;SDS011;18312;51.486;7.144;2022-12-18T08:21:36;42.47;;;16.60;;
31732;SDS011;18312;51.486;7.144;2022-12-18T08:24:06;53.50;;;17.55;;
31732;SDS011;18312;51.486;7.144;2022-12-18T08:26:34;44.78;;;19.42;;
31732;SDS011;18312;51.486;7.144;2022-12-18T08:29:01;45.53;;;17.95;;
31732;SDS011;18312;51.486;7.144;2022-12-18T08:31:30;39.42;;;18.30;;
31732;SDS011;18312;51.486;7.144;2022-12-18T08:33:57;50.00;;;21.75;;
31732;SDS011;18312;51.486;7.144;2022-12-18T08:36:24;50.28;;;18.70;;
31732;SDS011;18312;51.486;7.144;2022-12-18T08:38:51;54.33;;;20.33;;
31732;SDS011;18312;51.486;7.144;2022-12-18T08:41:19;41.53;;;19.13;;
31732;SDS011;18312;51.486;7.144;2022-12-18T08:43:46;46.97;;;18.50;;
31732;SDS011;18312;51.486;7.144;2022-12-18T08:46:35;49.15;;;19.27;;
31732;SDS011;18312;51.486;7.144;2022-12-18T08:49:03;43.97;;;18.33;;
31732;SDS011;18312;51.486;7.144;2022-12-18T08:51:30;48.35;;;17.70;;
31732;SDS011;18312;51.486;7.144;2022-12-18T08:53:57;43.03;;;18.38;;
31732;SDS011;18312;51.486;7.144;2022-12-18T08:56:24;56.35;;;22.08;;
31732;SDS011;18312;51.486;7.144;2022-12-18T08:58:51;60.60;;;20.85;;
31732;SDS011;18312;51.486;7.144;2022-12-18T09:01:18;46.50;;;18.75;;
31732;SDS011;18312;51.486;7.144;2022-12-18T09:03:47;48.38;;;18.75;;
31732;SDS011;18312;51.486;7.144;2022-12-18T09:06:14;45.35;;;18.27;;
31732;SDS011;18312;51.486;7.144;2022-12-18T09:08:42;56.10;;;18.45;;
31732;SDS011;18312;51.486;7.144;2022-12-18T09:11:11;38.03;;;18.25;;
31732;SDS011;18312;51.486;7.144;2022-12-18T09:13:40;56.58;;;21.20;;
31732;SDS011;18312;51.486;7.144;2022-12-18T09:16:07;57.00;;;21.38;;
31732;SDS011;18312;51.486;7.144;2022-12-18T09:18:34;46.60;;;19.33;;
31732;SDS011;18312;51.486;7.144;2022-12-18T09:21:08;43.95;;;18.50;;
31732;SDS011;18312;51.486;7.144;2022-12-18T09:23:35;49.97;;;19.90;;
31732;SDS011;18312;51.486;7.144;2022-12-18T09:26:02;47.97;;;20.00;;
31732;SDS011;18312;51.486;7.144;2022-12-18T09:28:29;57.78;;;20.30;;
31732;SDS011;18312;51.486;7.144;2022-12-18T09:30:56;47.88;;;21.20;;
31732;SDS011;18312;51.486;7.144;2022-12-18T09:33:22;50.05;;;20.77;;
31732;SDS011;18312;51.486;7.144;2022-12-18T09:35:49;45.15;;;19.60;;
31732;SDS011;18312;51.486;7.144;2022-12-18T09:38:18;48.97;;;21.95;;
31732;SDS011;18312;51.486;7.144;2022-12-18T09:40:46;49.45;;;22.80;;
31732;SDS011;18312;51.486;7.144;2022-12-18T09:43:15;54.65;;;20.63;;
31732;SDS011;18312;51.486;7.144;2022-12-18T09:45:45;55.90;;;22.77;;
31732;SDS011;18312;51.486;7.144;2022-12-18T09:48:15;59.85;;;22.83;;
31732;SDS011;18312;51.486;7.144;2022-12-18T09:50:49;57.70;;;24.42;;
31732;SDS011;18312;51.486;7.144;2022-12-18T09:53:19;61.78;;;23.77;;
31732;SDS011;18312;51.486;7.144;2022-12-18T09:55:48;57.72;;;25.13;;
31732;SDS011;18312;51.486;7.144;2022-12-18T09:58:19;60.45;;;25.08;;
31732;SDS011;18312;51.486;7.144;2022-12-18T10:00:51;59.88;;;25.95;;
31732;SDS011;18312;51.486;7.144;2022-12-18T10:03:18;65.15;;;25.55;;
31732;SDS011;18312;51.486;7.144;2022-12-18T10:05:47;76.80;;;26.95;;
31732;SDS011;18312;51.486;7.144;2022-12-18T10:10:57;60.95;;;25.08;;
31732;SDS011;18312;51.486;7.144;2022-12-18T10:13:28;35.85;;;16.45;;
31732;SDS011;18312;51.486;7.144;2022-12-18T10:16:06;31.30;;;12.88;;
31732;SDS011;18312;51.486;7.144;2022-12-18T10:18:50;46.67;;;18.93;;
31732;SDS011;18312;51.486;7.144;2022-12-18T10:21:34;17.52;;;8.05;;
31732;SDS011;18312;51.486;7.144;2022-12-18T10:24:13;11.90;;;5.57;;
31732;SDS011;18312;51.486;7.144;2022-12-18T10:26:48;8.40;;;3.78;;
31732;SDS011;18312;51.486;7.144;2022-12-18T10:29:16;7.45;;;3.92;;
31732;SDS011;18312;51.486;7.144;2022-12-18T10:31:43;6.55;;;3.05;;
31732;SDS011;18312;51.486;7.144;2022-12-18T10:34:10;7.22;;;2.58;;
31732;SDS011;18312;51.486;7.144;2022-12-18T10:36:37;3.85;;;2.25;;
31732;SDS011;18312;51.486;7.144;2022-12-18T10:39:18;6.88;;;2.53;;
31732;SDS011;18312;51.486;7.144;2022-12-18T10:41:47;3.42;;;2.47;;
31732;SDS011;18312;51.486;7.144;2022-12-18T10:44:16;7.10;;;2.20;;
31732;SDS011;18312;51.486;7.144;2022-12-18T10:46:45;6.70;;;2.78;;
31732;SDS011;18312;51.486;7.144;2022-12-18T10:49:18;8.02;;;2.70;;
31732;SDS011;18312;51.486;7.144;2022-12-18T10:51:47;5.88;;;2.38;;
31732;SDS011;18312;51.486;7.144;2022-12-18T10:54:18;4.35;;;1.60;;
31732;SDS011;18312;51.486;7.144;2022-12-18T10:56:48;6.72;;;2.50;;
31732;SDS011;18312;51.486;7.144;2022-12-18T10:59:15;7.22;;;1.88;;
31732;SDS011;18312;51.486;7.144;2022-12-18T11:01:50;6.00;;;2.47;;
31732;SDS011;18312;51.486;7.144;2022-12-18T11:04:20;4.68;;;2.63;;
31732;SDS011;18312;51.486;7.144;2022-12-18T11:06:56;8.45;;;2.70;;
31732;SDS011;18312;51.486;7.144;2022-12-18T11:09:26;3.25;;;1.90;;
31732;SDS011;18312;51.486;7.144;2022-12-18T11:11:54;6.57;;;2.28;;
31732;SDS011;18312;51.486;7.144;2022-12-18T11:14:25;9.52;;;2.42;;
31732;SDS011;18312;51.486;7.144;2022-12-18T11:16:53;6.33;;;2.13;;
31732;SDS011;18312;51.486;7.144;2022-12-18T11:19:25;4.97;;;2.40;;
31732;SDS011;18312;51.486;7.144;2022-12-18T11:21:57;7.88;;;2.67;;
31732;SDS011;18312;51.486;7.144;2022-12-18T11:24:27;11.63;;;3.15;;
31732;SDS011;18312;51.486;7.144;2022-12-18T11:26:57;6.35;;;2.25;;
31732;SDS011;18312;51.486;7.144;2022-12-18T11:32:08;5.00;;;2.60;;
31732;SDS011;18312;51.486;7.144;2022-12-18T11:34:59;7.05;;;2.58;;
31732;SDS011;18312;51.486;7.144;2022-12-18T11:37:29;3.55;;;1.77;;
31732;SDS011;18312;51.486;7.144;2022-12-18T11:39:59;4.70;;;2.65;;
31732;SDS011;18312;51.486;7.144;2022-12-18T11:42:34;7.82;;;3.25;;
31732;SDS011;18312;51.486;7.144;2022-12-18T11:45:08;7.20;;;2.53;;
31732;SDS011;18312;51.486;7.144;2022-12-18T11:47:52;8.65;;;2.17;;
31732;SDS011;18312;51.486;7.144;2022-12-18T11:50:24;13.35;;;2.42;;
31732;SDS011;18312;51.486;7.144;2022-12-18T11:52:54;7.45;;;2.30;;
31732;SDS011;18312;51.486;7.144;2022-12-18T11:55:24;4.65;;;2.85;;
31732;SDS011;18312;51.486;7.144;2022-12-18T11:58:02;4.60;;;2.33;;
31732;SDS011;18312;51.486;7.144;2022-12-18T12:00:35;7.50;;;2.22;;
31732;SDS011;18312;51.486;7.144;2022-12-18T12:03:22;4.82;;;2.55;;
31732;SDS011;18312;51.486;7.144;2022-12-18T12:06:05;5.85;;;2.45;;
31732;SDS011;18312;51.486;7.144;2022-12-18T12:08:42;6.15;;;2.95;;
31732;SDS011;18312;51.486;7.144;2022-12-18T12:11:20;6.75;;;2.42;;
31732;SDS011;18312;51.486;7.144;2022-12-18T12:13:57;4.47;;;2.28;;
31732;SDS011;18312;51.486;7.144;2022-12-18T12:16:34;6.15;;;2.38;;
31732;SDS011;18312;51.486;7.144;2022-12-18T12:19:13;8.25;;;2.65;;
31732;SDS011;18312;51.486;7.144;2022-12-18T12:21:49;6.82;;;2.80;;
31732;SDS011;18312;51.486;7.144;2022-12-18T12:24:27;6.50;;;2.60;;
31732;SDS011;18312;51.486;7.144;2022-12-18T12:27:11;8.88;;;3.25;;
31732;SDS011;18312;51.486;7.144;2022-12-18T12:29:47;12.40;;;3.42;;
31732;SDS011;18312;51.486;7.144;2022-12-18T12:32:28;6.25;;;2.72;;
31732;SDS011;18312;51.486;7.144;2022-12-18T12:35:11;6.10;;;2.58;;
31732;SDS011;18312;51.486;7.144;2022-12-18T12:37:48;16.92;;;8.13;;
31732;SDS011;18312;51.486;7.144;2022-12-18T12:40:26;36.13;;;15.63;;
31732;SDS011;18312;51.486;7.144;2022-12-18T12:42:58;37.90;;;16.95;;
31732;SDS011;18312;51.486;7.144;2022-12-18T12:48:11;30.65;;;14.63;;
31732;SDS011;18312;51.486;7.144;2022-12-18T12:50:43;33.03;;;16.35;;
31732;SDS011;18312;51.486;7.144;2022-12-18T12:53:14;33.67;;;16.75;;
31732;SDS011;18312;51.486;7.144;2022-12-18T12:55:50;18.65;;;10.35;;
31732;SDS011;18312;51.486;7.144;2022-12-18T12:58:22;18.75;;;9.35;;
31732;SDS011;18312;51.486;7.144;2022-12-18T13:00:58;9.45;;;4.47;;
31732;SDS011;18312;51.486;7.144;2022-12-18T13:03:36;8.43;;;3.30;;
31732;SDS011;18312;51.486;7.144;2022-12-18T13:06:12;11.10;;;3.03;;
31732;SDS011;18312;51.486;7.144;2022-12-18T13:08:52;7.93;;;3.58;;
31732;SDS011;18312;51.486;7.144;2022-12-18T13:11:28;9.45;;;3.75;;
31732;SDS011;18312;51.486;7.144;2022-12-18T13:14:24;7.45;;;4.18;;
31732;SDS011;18312;51.486;7.144;2022-12-18T13:19:42;12.45;;;4.88;;
31732;SDS011;18312;51.486;7.144;2022-12-18T13:22:20;9.55;;;3.72;;
31732;SDS011;18312;51.486;7.144;2022-12-18T13:24:48;8.48;;;3.78;;
31732;SDS011;18312;51.486;7.144;2022-12-18T13:30:47;17.42;;;4.28;;
31732;SDS011;18312;51.486;7.144;2022-12-18T13:33:36;10.85;;;4.15;;
31732;SDS011;18312;51.486;7.144;2022-12-18T13:36:12;7.57;;;3.90;;
31732;SDS011;18312;51.486;7.144;2022-12-18T13:38:41;11.10;;;4.45;;
31732;SDS011;18312;51.486;7.144;2022-12-18T13:41:22;8.57;;;4.75;;
31732;SDS011;18312;51.486;7.144;2022-12-18T13:43:51;9.63;;;4.32;;
31732;SDS011;18312;51.486;7.144;2022-12-18T13:46:21;11.55;;;5.07;;
31732;SDS011;18312;51.486;7.144;2022-12-18T13:48:57;11.48;;;4.80;;
31732;SDS011;18312;51.486;7.144;2022-12-18T13:51:26;17.20;;;5.55;;
31732;SDS011;18312;51.486;7.144;2022-12-18T13:53:55;10.95;;;5.43;;
31732;SDS011;18312;51.486;7.144;2022-12-18T13:56:25;12.85;;;5.03;;
31732;SDS011;18312;51.486;7.144;2022-12-18T13:59:06;11.68;;;5.57;;
31732;SDS011;18312;51.486;7.144;2022-12-18T14:01:45;12.63;;;4.85;;
31732;SDS011;18312;51.486;7.144;2022-12-18T14:04:18;16.10;;;5.80;;
31732;SDS011;18312;51.486;7.144;2022-12-18T14:06:47;13.63;;;5.55;;
31732;SDS011;18312;51.486;7.144;2022-12-18T14:09:15;15.25;;;6.07;;
31732;SDS011;18312;51.486;7.144;2022-12-18T14:11:48;12.63;;;6.45;;
31732;SDS011;18312;51.486;7.144;2022-12-18T14:14:16;20.55;;;6.18;;
31732;SDS011;18312;51.486;7.144;2022-12-18T14:16:45;19.77;;;5.57;;
31732;SDS011;18312;51.486;7.144;2022-12-18T14:19:13;77.93;;;37.80;;
31732;SDS011;18312;51.486;7.144;2022-12-18T14:24:14;40.15;;;17.77;;
31732;SDS011;18312;51.486;7.144;2022-12-18T14:26:42;117.78;;;57.17;;
31732;SDS011;18312;51.486;7.144;2022-12-18T14:29:21;35.88;;;14.20;;
31732;SDS011;18312;51.486;7.144;2022-12-18T14:32:08;56.22;;;25.98;;
31732;SDS011;18312;51.486;7.144;2022-12-18T14:34:37;14.38;;;6.63;;
31732;SDS011;18312;51.486;7.144;2022-12-18T14:37:04;53.50;;;22.20;;
31732;SDS011;18312;51.486;7.144;2022-12-18T14:39:31;21.60;;;10.13;;
31732;SDS011;18312;51.486;7.144;2022-12-18T14:41:58;19.02;;;9.15;;
31732;SDS011;18312;51.486;7.144;2022-12-18T14:44:25;20.77;;;7.15;;
31732;SDS011;18312;51.486;7.144;2022-12-18T14:46:52;19.05;;;9.70;;
31732;SDS011;18312;51.486;7.144;2022-12-18T14:49:21;14.10;;;7.07;;
31732;SDS011;18312;51.486;7.144;2022-12-18T14:51:52;19.58;;;6.95;;
31732;SDS011;18312;51.486;7.144;2022-12-18T14:54:20;38.42;;;17.20;;
31732;SDS011;18312;51.486;7.144;2022-12-18T14:56:49;26.83;;;13.30;;
31732;SDS011;18312;51.486;7.144;2022-12-18T14:59:26;24.70;;;9.93;;
31732;SDS011;18312;51.486;7.144;2022-12-18T15:01:57;17.05;;;7.43;;
31732;SDS011;18312;51.486;7.144;2022-12-18T15:04:29;16.02;;;7.90;;
31732;SDS011;18312;51.486;7.144;2022-12-18T15:07:06;20.33;;;10.05;;
31732;SDS011;18312;51.486;7.144;2022-12-18T15:09:37;18.60;;;7.95;;
31732;SDS011;18312;51.486;7.144;2022-12-18T15:12:17;29.35;;;10.73;;